sensor_id;sensor_type;location;lat;lon;timestamp;temperature;humidity
3334;DHT22;1679;50.392;8.008;2023-07-31T00:01:30;17.30;99.90
3334;DHT22;1679;50.392;8.008;2023-07-31T00:03:56;17.20;99.90
3334;DHT22;1679;50.392;8.008;2023-07-31T00:06:22;17.20;99.90
3334;DHT22;1679;50.392;8.008;2023-07-31T00:08:49;17.20;99.90
3334;DHT22;1679;50.392;8.008;2023-07-31T00:11:14;17.30;99.90
3334;DHT22;1679;50.392;8.008;2023-07-31T00:13:40;17.30;99.90
3334;DHT22;1679;50.392;8.008;2023-07-31T00:16:05;17.30;99.90
3334;DHT22;1679;50.392;8.008;2023-07-31T00:18:31;17.30;99.90
3334;DHT22;1679;50.392;8.008;2023-07-31T00:20:57;17.30;99.90
3334;DHT22;1679;50.392;8.008;2023-07-31T00:23:22;17.40;99.90
3334;DHT22;1679;50.392;8.008;2023-07-31T00:25:48;17.30;99.90
3334;DHT22;1679;50.392;8.008;2023-07-31T00:28:13;17.30;99.90
3334;DHT22;1679;50.392;8.008;2023-07-31T00:30:39;17.30;99.90
3334;DHT22;1679;50.392;8.008;2023-07-31T00:33:05;17.30;99.90
3334;DHT22;1679;50.392;8.008;2023-07-31T00:35:30;17.20;99.90
3334;DHT22;1679;50.392;8.008;2023-07-31T00:37:57;17.20;99.90
3334;DHT22;1679;50.392;8.008;2023-07-31T00:40:23;17.20;99.90
3334;DHT22;1679;50.392;8.008;2023-07-31T00:42:48;17.20;99.90
3334;DHT22;1679;50.392;8.008;2023-07-31T00:45:14;17.20;99.90
3334;DHT22;1679;50.392;8.008;2023-07-31T00:47:40;17.20;99.90
3334;DHT22;1679;50.392;8.008;2023-07-31T00:50:07;17.10;99.90
3334;DHT22;1679;50.392;8.008;2023-07-31T00:52:32;17.10;99.90
3334;DHT22;1679;50.392;8.008;2023-07-31T00:54:59;17.10;99.90
3334;DHT22;1679;50.392;8.008;2023-07-31T00:57:25;17.10;99.90
3334;DHT22;1679;50.392;8.008;2023-07-31T00:59:50;17.10;99.90
3334;DHT22;1679;50.392;8.008;2023-07-31T01:02:16;17.20;99.90
3334;DHT22;1679;50.392;8.008;2023-07-31T01:04:42;17.20;99.90
3334;DHT22;1679;50.392;8.008;2023-07-31T01:07:27;17.20;99.90
3334;DHT22;1679;50.392;8.008;2023-07-31T01:10:26;17.30;99.90
3334;DHT22;1679;50.392;8.008;2023-07-31T01:12:55;17.30;99.90
3334;DHT22;1679;50.392;8.008;2023-07-31T01:15:21;17.30;99.90
3334;DHT22;1679;50.392;8.008;2023-07-31T01:17:47;17.30;99.90
3334;DHT22;1679;50.392;8.008;2023-07-31T01:20:22;17.30;99.90
3334;DHT22;1679;50.392;8.008;2023-07-31T01:26:09;17.40;99.90
3334;DHT22;1679;50.392;8.008;2023-07-31T01:28:45;17.50;99.90
3334;DHT22;1679;50.392;8.008;2023-07-31T01:31:15;17.50;99.90
3334;DHT22;1679;50.392;8.008;2023-07-31T01:33:41;17.50;99.90
3334;DHT22;1679;50.392;8.008;2023-07-31T01:36:07;17.50;99.90
3334;DHT22;1679;50.392;8.008;2023-07-31T01:38:34;17.60;99.90
3334;DHT22;1679;50.392;8.008;2023-07-31T01:40:59;17.60;99.90
3334;DHT22;1679;50.392;8.008;2023-07-31T01:43:25;17.60;99.90
3334;DHT22;1679;50.392;8.008;2023-07-31T01:45:50;17.60;99.90
3334;DHT22;1679;50.392;8.008;2023-07-31T01:48:16;17.60;99.90
3334;DHT22;1679;50.392;8.008;2023-07-31T01:50:41;17.60;99.90
3334;DHT22;1679;50.392;8.008;2023-07-31T01:53:07;17.60;99.90
3334;DHT22;1679;50.392;8.008;2023-07-31T01:55:32;17.60;99.90
3334;DHT22;1679;50.392;8.008;2023-07-31T01:57:58;17.60;99.90
3334;DHT22;1679;50.392;8.008;2023-07-31T02:00:23;17.60;99.90
3334;DHT22;1679;50.392;8.008;2023-07-31T02:02:49;17.60;99.90
3334;DHT22;1679;50.392;8.008;2023-07-31T02:05:15;17.70;99.90
3334;DHT22;1679;50.392;8.008;2023-07-31T02:07:40;17.60;99.90
3334;DHT22;1679;50.392;8.008;2023-07-31T02:10:06;17.70;99.90
3334;DHT22;1679;50.392;8.008;2023-07-31T02:12:32;17.70;99.90
3334;DHT22;1679;50.392;8.008;2023-07-31T02:14:59;17.70;99.90
3334;DHT22;1679;50.392;8.008;2023-07-31T02:17:25;17.70;99.90
3334;DHT22;1679;50.392;8.008;2023-07-31T02:19:51;17.70;99.90
3334;DHT22;1679;50.392;8.008;2023-07-31T02:22:16;17.70;99.90
3334;DHT22;1679;50.392;8.008;2023-07-31T02:24:42;17.70;99.90
3334;DHT22;1679;50.392;8.008;2023-07-31T02:27:07;17.60;99.90
3334;DHT22;1679;50.392;8.008;2023-07-31T02:29:33;17.70;99.90
3334;DHT22;1679;50.392;8.008;2023-07-31T02:31:58;17.60;99.90
3334;DHT22;1679;50.392;8.008;2023-07-31T02:34:26;17.60;99.90
3334;DHT22;1679;50.392;8.008;2023-07-31T02:36:52;17.60;99.90
3334;DHT22;1679;50.392;8.008;2023-07-31T02:39:17;17.60;99.90
3334;DHT22;1679;50.392;8.008;2023-07-31T02:41:43;17.60;99.90
3334;DHT22;1679;50.392;8.008;2023-07-31T02:44:09;17.50;99.90
3334;DHT22;1679;50.392;8.008;2023-07-31T02:46:35;17.60;99.90
3334;DHT22;1679;50.392;8.008;2023-07-31T02:49:01;17.50;99.90
3334;DHT22;1679;50.392;8.008;2023-07-31T02:51:27;17.50;99.90
3334;DHT22;1679;50.392;8.008;2023-07-31T02:53:53;17.50;99.90
3334;DHT22;1679;50.392;8.008;2023-07-31T02:56:19;17.40;99.90
3334;DHT22;1679;50.392;8.008;2023-07-31T02:58:44;17.50;99.90
3334;DHT22;1679;50.392;8.008;2023-07-31T03:01:10;17.50;99.90
3334;DHT22;1679;50.392;8.008;2023-07-31T03:03:35;17.50;99.90
3334;DHT22;1679;50.392;8.008;2023-07-31T03:06:01;17.50;99.90
3334;DHT22;1679;50.392;8.008;2023-07-31T03:08:26;17.40;99.90
3334;DHT22;1679;50.392;8.008;2023-07-31T03:10:52;17.50;99.90
3334;DHT22;1679;50.392;8.008;2023-07-31T03:13:18;17.50;99.90
3334;DHT22;1679;50.392;8.008;2023-07-31T03:15:44;17.50;99.90
3334;DHT22;1679;50.392;8.008;2023-07-31T03:18:10;17.50;99.90
3334;DHT22;1679;50.392;8.008;2023-07-31T03:20:36;17.50;99.90
3334;DHT22;1679;50.392;8.008;2023-07-31T03:23:01;17.50;99.90
3334;DHT22;1679;50.392;8.008;2023-07-31T03:25:27;17.50;99.90
3334;DHT22;1679;50.392;8.008;2023-07-31T03:27:52;17.40;99.90
3334;DHT22;1679;50.392;8.008;2023-07-31T03:30:18;17.40;99.90
3334;DHT22;1679;50.392;8.008;2023-07-31T03:32:43;17.40;99.90
3334;DHT22;1679;50.392;8.008;2023-07-31T03:35:09;17.50;99.90
3334;DHT22;1679;50.392;8.008;2023-07-31T03:37:34;17.50;99.90
3334;DHT22;1679;50.392;8.008;2023-07-31T03:40:00;17.40;99.90
3334;DHT22;1679;50.392;8.008;2023-07-31T03:42:25;17.40;99.90
3334;DHT22;1679;50.392;8.008;2023-07-31T03:44:51;17.40;99.90
3334;DHT22;1679;50.392;8.008;2023-07-31T03:47:16;17.40;99.90
3334;DHT22;1679;50.392;8.008;2023-07-31T03:49:42;17.30;99.90
3334;DHT22;1679;50.392;8.008;2023-07-31T03:52:07;17.30;99.90
3334;DHT22;1679;50.392;8.008;2023-07-31T03:54:33;17.20;99.90
3334;DHT22;1679;50.392;8.008;2023-07-31T03:56:59;17.20;99.90
3334;DHT22;1679;50.392;8.008;2023-07-31T03:59:24;17.20;99.90
3334;DHT22;1679;50.392;8.008;2023-07-31T04:01:51;17.20;99.90
3334;DHT22;1679;50.392;8.008;2023-07-31T04:04:16;17.20;99.90
3334;DHT22;1679;50.392;8.008;2023-07-31T04:06:42;17.20;99.90
3334;DHT22;1679;50.392;8.008;2023-07-31T04:09:07;17.20;99.90
3334;DHT22;1679;50.392;8.008;2023-07-31T04:11:33;17.20;99.90
3334;DHT22;1679;50.392;8.008;2023-07-31T04:13:59;17.20;99.90
3334;DHT22;1679;50.392;8.008;2023-07-31T04:16:25;17.20;99.90
3334;DHT22;1679;50.392;8.008;2023-07-31T04:18:51;17.20;99.90
3334;DHT22;1679;50.392;8.008;2023-07-31T04:21:17;17.20;99.90
3334;DHT22;1679;50.392;8.008;2023-07-31T04:23:43;17.20;99.90
3334;DHT22;1679;50.392;8.008;2023-07-31T04:26:09;17.20;99.90
3334;DHT22;1679;50.392;8.008;2023-07-31T04:28:35;17.20;99.90
3334;DHT22;1679;50.392;8.008;2023-07-31T04:31:00;17.20;99.90
3334;DHT22;1679;50.392;8.008;2023-07-31T04:33:26;17.20;99.90
3334;DHT22;1679;50.392;8.008;2023-07-31T04:35:52;17.20;99.90
3334;DHT22;1679;50.392;8.008;2023-07-31T04:38:19;17.20;99.90
3334;DHT22;1679;50.392;8.008;2023-07-31T04:40:45;17.20;99.90
3334;DHT22;1679;50.392;8.008;2023-07-31T04:43:10;17.20;99.90
3334;DHT22;1679;50.392;8.008;2023-07-31T04:45:36;17.20;99.90
3334;DHT22;1679;50.392;8.008;2023-07-31T04:48:01;17.30;99.90
3334;DHT22;1679;50.392;8.008;2023-07-31T04:50:27;17.20;99.90
3334;DHT22;1679;50.392;8.008;2023-07-31T04:52:52;17.30;99.90
3334;DHT22;1679;50.392;8.008;2023-07-31T04:55:18;17.30;99.90
3334;DHT22;1679;50.392;8.008;2023-07-31T04:57:43;17.30;99.90
3334;DHT22;1679;50.392;8.008;2023-07-31T05:00:09;17.30;99.90
3334;DHT22;1679;50.392;8.008;2023-07-31T05:02:35;17.30;99.90
3334;DHT22;1679;50.392;8.008;2023-07-31T05:05:00;17.40;99.90
3334;DHT22;1679;50.392;8.008;2023-07-31T05:07:25;17.40;99.90
3334;DHT22;1679;50.392;8.008;2023-07-31T05:09:51;17.50;99.90
3334;DHT22;1679;50.392;8.008;2023-07-31T05:12:16;17.50;99.90
3334;DHT22;1679;50.392;8.008;2023-07-31T05:14:42;17.50;99.90
3334;DHT22;1679;50.392;8.008;2023-07-31T05:17:07;17.50;99.90
3334;DHT22;1679;50.392;8.008;2023-07-31T05:19:33;17.50;99.90
3334;DHT22;1679;50.392;8.008;2023-07-31T05:21:58;17.60;99.90
3334;DHT22;1679;50.392;8.008;2023-07-31T05:24:24;17.60;99.90
3334;DHT22;1679;50.392;8.008;2023-07-31T05:26:49;17.70;99.90
3334;DHT22;1679;50.392;8.008;2023-07-31T05:29:15;17.60;99.90
3334;DHT22;1679;50.392;8.008;2023-07-31T05:31:41;17.60;99.90
3334;DHT22;1679;50.392;8.008;2023-07-31T05:34:07;17.60;99.90
3334;DHT22;1679;50.392;8.008;2023-07-31T05:36:33;17.70;99.90
3334;DHT22;1679;50.392;8.008;2023-07-31T05:38:58;17.70;99.90
3334;DHT22;1679;50.392;8.008;2023-07-31T05:41:25;17.70;99.90
3334;DHT22;1679;50.392;8.008;2023-07-31T05:43:50;17.70;99.90
3334;DHT22;1679;50.392;8.008;2023-07-31T05:46:16;17.70;99.90
3334;DHT22;1679;50.392;8.008;2023-07-31T05:48:42;17.80;99.90
3334;DHT22;1679;50.392;8.008;2023-07-31T05:51:07;17.80;99.90
3334;DHT22;1679;50.392;8.008;2023-07-31T05:53:33;17.90;99.90
3334;DHT22;1679;50.392;8.008;2023-07-31T05:55:58;17.90;99.90
3334;DHT22;1679;50.392;8.008;2023-07-31T05:58:24;17.90;99.90
3334;DHT22;1679;50.392;8.008;2023-07-31T06:00:49;18.00;99.90
3334;DHT22;1679;50.392;8.008;2023-07-31T06:03:15;18.00;99.90
3334;DHT22;1679;50.392;8.008;2023-07-31T06:05:40;18.00;99.90
3334;DHT22;1679;50.392;8.008;2023-07-31T06:08:06;18.00;99.90
3334;DHT22;1679;50.392;8.008;2023-07-31T06:10:32;18.00;99.90
3334;DHT22;1679;50.392;8.008;2023-07-31T06:12:57;18.00;99.90
3334;DHT22;1679;50.392;8.008;2023-07-31T06:15:23;18.00;99.90
3334;DHT22;1679;50.392;8.008;2023-07-31T06:17:48;18.00;99.90
3334;DHT22;1679;50.392;8.008;2023-07-31T06:20:14;18.10;99.90
3334;DHT22;1679;50.392;8.008;2023-07-31T06:22:41;18.10;99.90
3334;DHT22;1679;50.392;8.008;2023-07-31T06:25:07;18.10;99.90
3334;DHT22;1679;50.392;8.008;2023-07-31T06:27:33;18.20;99.90
3334;DHT22;1679;50.392;8.008;2023-07-31T06:30:00;18.30;99.90
3334;DHT22;1679;50.392;8.008;2023-07-31T06:32:25;18.50;99.90
3334;DHT22;1679;50.392;8.008;2023-07-31T06:34:50;18.60;99.90
3334;DHT22;1679;50.392;8.008;2023-07-31T06:37:16;18.70;99.90
3334;DHT22;1679;50.392;8.008;2023-07-31T06:39:41;18.70;99.90
3334;DHT22;1679;50.392;8.008;2023-07-31T06:42:07;18.80;99.90
3334;DHT22;1679;50.392;8.008;2023-07-31T06:44:33;18.80;99.90
3334;DHT22;1679;50.392;8.008;2023-07-31T06:46:58;18.80;99.90
3334;DHT22;1679;50.392;8.008;2023-07-31T06:49:23;18.90;99.90
3334;DHT22;1679;50.392;8.008;2023-07-31T06:51:49;19.00;99.90
3334;DHT22;1679;50.392;8.008;2023-07-31T06:54:14;19.10;99.90
3334;DHT22;1679;50.392;8.008;2023-07-31T06:56:41;19.20;99.90
3334;DHT22;1679;50.392;8.008;2023-07-31T06:59:07;19.40;99.90
3334;DHT22;1679;50.392;8.008;2023-07-31T07:01:32;19.40;99.90
3334;DHT22;1679;50.392;8.008;2023-07-31T07:03:58;19.40;99.90
3334;DHT22;1679;50.392;8.008;2023-07-31T07:06:24;19.20;99.90
3334;DHT22;1679;50.392;8.008;2023-07-31T07:08:49;19.00;99.90
3334;DHT22;1679;50.392;8.008;2023-07-31T07:11:15;18.90;99.90
3334;DHT22;1679;50.392;8.008;2023-07-31T07:13:41;18.90;99.90
3334;DHT22;1679;50.392;8.008;2023-07-31T07:16:08;18.80;99.90
3334;DHT22;1679;50.392;8.008;2023-07-31T07:18:35;18.80;99.90
3334;DHT22;1679;50.392;8.008;2023-07-31T07:21:01;18.90;99.90
3334;DHT22;1679;50.392;8.008;2023-07-31T07:23:27;19.00;99.90
3334;DHT22;1679;50.392;8.008;2023-07-31T07:25:53;19.00;99.90
3334;DHT22;1679;50.392;8.008;2023-07-31T07:28:18;19.00;99.90
3334;DHT22;1679;50.392;8.008;2023-07-31T07:30:50;19.00;99.90
3334;DHT22;1679;50.392;8.008;2023-07-31T07:33:17;19.10;99.90
3334;DHT22;1679;50.392;8.008;2023-07-31T07:35:42;19.10;99.90
3334;DHT22;1679;50.392;8.008;2023-07-31T07:38:08;19.10;99.90
3334;DHT22;1679;50.392;8.008;2023-07-31T07:40:38;19.20;99.90
3334;DHT22;1679;50.392;8.008;2023-07-31T07:43:04;19.30;99.90
3334;DHT22;1679;50.392;8.008;2023-07-31T07:45:30;19.40;99.90
3334;DHT22;1679;50.392;8.008;2023-07-31T07:47:55;19.50;99.90
3334;DHT22;1679;50.392;8.008;2023-07-31T07:50:21;19.50;99.90
3334;DHT22;1679;50.392;8.008;2023-07-31T07:52:46;19.70;99.90
3334;DHT22;1679;50.392;8.008;2023-07-31T07:55:12;19.80;99.90
3334;DHT22;1679;50.392;8.008;2023-07-31T07:57:37;19.80;99.90
3334;DHT22;1679;50.392;8.008;2023-07-31T08:00:04;19.90;99.90
3334;DHT22;1679;50.392;8.008;2023-07-31T08:02:31;20.20;99.90
3334;DHT22;1679;50.392;8.008;2023-07-31T08:04:57;20.40;99.90
3334;DHT22;1679;50.392;8.008;2023-07-31T08:07:24;20.50;99.90
3334;DHT22;1679;50.392;8.008;2023-07-31T08:09:50;20.60;99.90
3334;DHT22;1679;50.392;8.008;2023-07-31T08:12:15;20.50;99.90
3334;DHT22;1679;50.392;8.008;2023-07-31T08:14:41;20.50;99.90
3334;DHT22;1679;50.392;8.008;2023-07-31T08:17:06;20.60;99.90
3334;DHT22;1679;50.392;8.008;2023-07-31T08:19:32;20.50;99.90
3334;DHT22;1679;50.392;8.008;2023-07-31T08:21:57;20.60;99.90
3334;DHT22;1679;50.392;8.008;2023-07-31T08:24:23;20.70;99.90
3334;DHT22;1679;50.392;8.008;2023-07-31T08:26:49;20.70;99.90
3334;DHT22;1679;50.392;8.008;2023-07-31T08:29:14;20.70;99.90
3334;DHT22;1679;50.392;8.008;2023-07-31T08:31:39;20.60;99.90
3334;DHT22;1679;50.392;8.008;2023-07-31T08:34:06;20.50;99.90
3334;DHT22;1679;50.392;8.008;2023-07-31T08:36:35;20.20;99.90
3334;DHT22;1679;50.392;8.008;2023-07-31T08:39:00;20.00;99.90
3334;DHT22;1679;50.392;8.008;2023-07-31T08:41:28;19.80;99.90
3334;DHT22;1679;50.392;8.008;2023-07-31T08:43:55;19.60;99.90
3334;DHT22;1679;50.392;8.008;2023-07-31T08:46:22;19.40;99.90
3334;DHT22;1679;50.392;8.008;2023-07-31T08:48:47;19.30;99.90
3334;DHT22;1679;50.392;8.008;2023-07-31T08:51:14;19.20;99.90
3334;DHT22;1679;50.392;8.008;2023-07-31T08:53:40;19.10;99.90
3334;DHT22;1679;50.392;8.008;2023-07-31T08:56:06;19.00;99.90
3334;DHT22;1679;50.392;8.008;2023-07-31T08:58:32;19.00;99.90
3334;DHT22;1679;50.392;8.008;2023-07-31T09:01:04;18.90;99.90
3334;DHT22;1679;50.392;8.008;2023-07-31T09:03:33;18.80;99.90
3334;DHT22;1679;50.392;8.008;2023-07-31T09:06:00;18.60;99.90
3334;DHT22;1679;50.392;8.008;2023-07-31T09:08:30;18.60;99.90
3334;DHT22;1679;50.392;8.008;2023-07-31T09:11:02;18.60;99.90
3334;DHT22;1679;50.392;8.008;2023-07-31T09:13:31;18.70;99.90
3334;DHT22;1679;50.392;8.008;2023-07-31T09:15:58;18.80;99.90
3334;DHT22;1679;50.392;8.008;2023-07-31T09:18:24;18.80;99.90
3334;DHT22;1679;50.392;8.008;2023-07-31T09:21:05;18.80;99.90
3334;DHT22;1679;50.392;8.008;2023-07-31T09:23:42;19.00;99.90
3334;DHT22;1679;50.392;8.008;2023-07-31T09:26:08;19.10;99.90
3334;DHT22;1679;50.392;8.008;2023-07-31T09:28:34;19.30;99.90
3334;DHT22;1679;50.392;8.008;2023-07-31T09:30:59;19.40;99.90
3334;DHT22;1679;50.392;8.008;2023-07-31T09:33:25;19.40;99.90
3334;DHT22;1679;50.392;8.008;2023-07-31T09:35:50;19.40;99.90
3334;DHT22;1679;50.392;8.008;2023-07-31T09:38:16;19.40;99.90
3334;DHT22;1679;50.392;8.008;2023-07-31T09:40:44;19.30;99.90
3334;DHT22;1679;50.392;8.008;2023-07-31T09:43:20;19.30;99.90
3334;DHT22;1679;50.392;8.008;2023-07-31T09:45:46;19.40;99.90
3334;DHT22;1679;50.392;8.008;2023-07-31T09:48:15;19.30;99.90
3334;DHT22;1679;50.392;8.008;2023-07-31T09:50:47;19.30;99.90
3334;DHT22;1679;50.392;8.008;2023-07-31T09:53:13;19.20;99.90
3334;DHT22;1679;50.392;8.008;2023-07-31T09:55:40;19.20;99.90
3334;DHT22;1679;50.392;8.008;2023-07-31T09:58:08;19.10;99.90
3334;DHT22;1679;50.392;8.008;2023-07-31T10:00:34;19.10;99.90
3334;DHT22;1679;50.392;8.008;2023-07-31T10:03:01;19.10;99.90
3334;DHT22;1679;50.392;8.008;2023-07-31T10:05:40;19.30;99.90
3334;DHT22;1679;50.392;8.008;2023-07-31T10:08:09;19.40;99.90
3334;DHT22;1679;50.392;8.008;2023-07-31T10:10:36;19.60;99.90
3334;DHT22;1679;50.392;8.008;2023-07-31T10:13:04;19.70;99.90
3334;DHT22;1679;50.392;8.008;2023-07-31T10:15:30;19.70;99.90
3334;DHT22;1679;50.392;8.008;2023-07-31T10:17:58;19.70;99.90
3334;DHT22;1679;50.392;8.008;2023-07-31T10:20:25;19.70;99.90
3334;DHT22;1679;50.392;8.008;2023-07-31T10:22:51;19.80;99.90
3334;DHT22;1679;50.392;8.008;2023-07-31T10:25:18;19.80;99.90
3334;DHT22;1679;50.392;8.008;2023-07-31T10:27:45;19.80;99.90
3334;DHT22;1679;50.392;8.008;2023-07-31T10:30:15;19.80;99.90
3334;DHT22;1679;50.392;8.008;2023-07-31T10:32:41;19.80;99.90
3334;DHT22;1679;50.392;8.008;2023-07-31T10:35:09;19.80;99.90
3334;DHT22;1679;50.392;8.008;2023-07-31T10:37:40;19.80;99.90
3334;DHT22;1679;50.392;8.008;2023-07-31T10:40:18;19.80;99.90
3334;DHT22;1679;50.392;8.008;2023-07-31T10:42:53;19.80;99.90
3334;DHT22;1679;50.392;8.008;2023-07-31T10:45:33;19.80;99.90
3334;DHT22;1679;50.392;8.008;2023-07-31T10:47:59;19.80;99.90
3334;DHT22;1679;50.392;8.008;2023-07-31T10:50:26;19.80;99.90
3334;DHT22;1679;50.392;8.008;2023-07-31T10:52:56;19.70;99.90
3334;DHT22;1679;50.392;8.008;2023-07-31T10:55:33;19.60;99.90
3334;DHT22;1679;50.392;8.008;2023-07-31T10:58:13;19.70;99.90
3334;DHT22;1679;50.392;8.008;2023-07-31T11:00:44;19.80;99.90
3334;DHT22;1679;50.392;8.008;2023-07-31T11:03:15;19.80;99.90
3334;DHT22;1679;50.392;8.008;2023-07-31T11:05:52;19.80;99.90
3334;DHT22;1679;50.392;8.008;2023-07-31T11:08:23;19.90;99.90
3334;DHT22;1679;50.392;8.008;2023-07-31T11:10:51;20.10;99.90
3334;DHT22;1679;50.392;8.008;2023-07-31T11:13:17;20.40;99.90
3334;DHT22;1679;50.392;8.008;2023-07-31T11:15:43;20.60;99.90
3334;DHT22;1679;50.392;8.008;2023-07-31T11:18:08;20.70;99.90
3334;DHT22;1679;50.392;8.008;2023-07-31T11:20:37;20.90;99.90
3334;DHT22;1679;50.392;8.008;2023-07-31T11:23:05;21.10;99.90
3334;DHT22;1679;50.392;8.008;2023-07-31T11:25:31;21.30;99.90
3334;DHT22;1679;50.392;8.008;2023-07-31T11:28:09;21.50;99.90
3334;DHT22;1679;50.392;8.008;2023-07-31T11:30:35;21.60;99.90
3334;DHT22;1679;50.392;8.008;2023-07-31T11:33:03;21.70;99.90
3334;DHT22;1679;50.392;8.008;2023-07-31T11:35:33;21.80;99.90
3334;DHT22;1679;50.392;8.008;2023-07-31T11:37:59;21.80;99.90
3334;DHT22;1679;50.392;8.008;2023-07-31T11:40:25;21.70;99.90
3334;DHT22;1679;50.392;8.008;2023-07-31T11:42:57;21.80;99.90
3334;DHT22;1679;50.392;8.008;2023-07-31T11:45:26;21.90;99.90
3334;DHT22;1679;50.392;8.008;2023-07-31T11:47:55;22.00;99.90
3334;DHT22;1679;50.392;8.008;2023-07-31T11:50:23;22.10;99.90
3334;DHT22;1679;50.392;8.008;2023-07-31T11:52:58;22.10;99.90
3334;DHT22;1679;50.392;8.008;2023-07-31T11:55:25;22.00;99.90
3334;DHT22;1679;50.392;8.008;2023-07-31T11:57:52;22.00;99.90
3334;DHT22;1679;50.392;8.008;2023-07-31T12:00:18;21.80;99.90
3334;DHT22;1679;50.392;8.008;2023-07-31T12:02:46;21.70;99.90
3334;DHT22;1679;50.392;8.008;2023-07-31T12:05:12;21.70;99.90
3334;DHT22;1679;50.392;8.008;2023-07-31T12:07:46;22.00;99.90
3334;DHT22;1679;50.392;8.008;2023-07-31T12:10:29;22.40;99.90
3334;DHT22;1679;50.392;8.008;2023-07-31T12:13:04;22.90;99.90
3334;DHT22;1679;50.392;8.008;2023-07-31T12:15:43;23.20;99.90
3334;DHT22;1679;50.392;8.008;2023-07-31T12:18:14;23.50;99.90
3334;DHT22;1679;50.392;8.008;2023-07-31T12:20:41;23.60;99.90
3334;DHT22;1679;50.392;8.008;2023-07-31T12:23:07;23.60;99.90
3334;DHT22;1679;50.392;8.008;2023-07-31T12:25:33;23.50;99.90
3334;DHT22;1679;50.392;8.008;2023-07-31T12:28:08;23.50;99.90
3334;DHT22;1679;50.392;8.008;2023-07-31T12:30:39;23.40;99.90
3334;DHT22;1679;50.392;8.008;2023-07-31T12:33:13;23.40;99.90
3334;DHT22;1679;50.392;8.008;2023-07-31T12:35:47;23.50;99.90
3334;DHT22;1679;50.392;8.008;2023-07-31T12:38:13;23.40;99.90
3334;DHT22;1679;50.392;8.008;2023-07-31T12:40:40;23.20;99.90
3334;DHT22;1679;50.392;8.008;2023-07-31T12:43:06;23.20;99.90
3334;DHT22;1679;50.392;8.008;2023-07-31T12:45:32;23.30;99.90
3334;DHT22;1679;50.392;8.008;2023-07-31T12:47:58;23.30;99.90
3334;DHT22;1679;50.392;8.008;2023-07-31T12:50:24;23.30;99.90
3334;DHT22;1679;50.392;8.008;2023-07-31T12:52:51;23.30;99.90
3334;DHT22;1679;50.392;8.008;2023-07-31T12:55:16;23.20;99.90
3334;DHT22;1679;50.392;8.008;2023-07-31T12:57:43;23.10;99.90
3334;DHT22;1679;50.392;8.008;2023-07-31T13:00:09;23.10;99.90
3334;DHT22;1679;50.392;8.008;2023-07-31T13:02:35;23.20;99.90
3334;DHT22;1679;50.392;8.008;2023-07-31T13:05:01;23.10;99.90
3334;DHT22;1679;50.392;8.008;2023-07-31T13:07:26;23.10;99.90
3334;DHT22;1679;50.392;8.008;2023-07-31T13:09:52;23.00;99.90
3334;DHT22;1679;50.392;8.008;2023-07-31T13:12:17;22.90;99.90
3334;DHT22;1679;50.392;8.008;2023-07-31T13:14:43;22.80;99.90
3334;DHT22;1679;50.392;8.008;2023-07-31T13:17:08;22.80;99.90
3334;DHT22;1679;50.392;8.008;2023-07-31T13:19:34;22.90;99.90
3334;DHT22;1679;50.392;8.008;2023-07-31T13:21:59;22.80;99.90
3334;DHT22;1679;50.392;8.008;2023-07-31T13:24:25;22.80;99.90
3334;DHT22;1679;50.392;8.008;2023-07-31T13:26:51;22.70;99.90
3334;DHT22;1679;50.392;8.008;2023-07-31T13:29:16;22.60;99.90
3334;DHT22;1679;50.392;8.008;2023-07-31T13:31:42;22.50;99.90
3334;DHT22;1679;50.392;8.008;2023-07-31T13:34:07;22.50;99.90
3334;DHT22;1679;50.392;8.008;2023-07-31T13:36:33;22.40;99.90
3334;DHT22;1679;50.392;8.008;2023-07-31T13:39:00;22.40;99.90
3334;DHT22;1679;50.392;8.008;2023-07-31T13:41:26;22.40;99.90
3334;DHT22;1679;50.392;8.008;2023-07-31T13:43:51;22.50;99.90
3334;DHT22;1679;50.392;8.008;2023-07-31T13:46:18;22.50;99.90
3334;DHT22;1679;50.392;8.008;2023-07-31T13:48:44;22.50;99.90
3334;DHT22;1679;50.392;8.008;2023-07-31T13:51:10;22.50;99.90
3334;DHT22;1679;50.392;8.008;2023-07-31T13:53:36;22.40;99.90
3334;DHT22;1679;50.392;8.008;2023-07-31T13:56:01;22.20;99.90
3334;DHT22;1679;50.392;8.008;2023-07-31T13:58:27;22.20;99.90
3334;DHT22;1679;50.392;8.008;2023-07-31T14:00:53;22.00;99.90
3334;DHT22;1679;50.392;8.008;2023-07-31T14:03:19;22.00;99.90
3334;DHT22;1679;50.392;8.008;2023-07-31T14:05:44;21.90;99.90
3334;DHT22;1679;50.392;8.008;2023-07-31T14:08:11;22.00;99.90
3334;DHT22;1679;50.392;8.008;2023-07-31T14:10:36;22.00;99.90
3334;DHT22;1679;50.392;8.008;2023-07-31T14:13:02;21.90;99.90
3334;DHT22;1679;50.392;8.008;2023-07-31T14:15:28;22.00;99.90
3334;DHT22;1679;50.392;8.008;2023-07-31T14:17:54;22.00;99.90
3334;DHT22;1679;50.392;8.008;2023-07-31T14:20:19;22.00;99.90
3334;DHT22;1679;50.392;8.008;2023-07-31T14:22:45;22.10;99.90
3334;DHT22;1679;50.392;8.008;2023-07-31T14:25:10;22.30;99.90
3334;DHT22;1679;50.392;8.008;2023-07-31T14:27:36;22.40;99.90
3334;DHT22;1679;50.392;8.008;2023-07-31T14:30:03;22.40;99.90
3334;DHT22;1679;50.392;8.008;2023-07-31T14:32:29;22.40;99.90
3334;DHT22;1679;50.392;8.008;2023-07-31T14:34:55;22.30;99.90
3334;DHT22;1679;50.392;8.008;2023-07-31T14:37:21;22.30;99.90
3334;DHT22;1679;50.392;8.008;2023-07-31T14:39:47;22.20;99.90
3334;DHT22;1679;50.392;8.008;2023-07-31T14:42:12;22.40;99.90
3334;DHT22;1679;50.392;8.008;2023-07-31T14:44:38;22.40;99.90
3334;DHT22;1679;50.392;8.008;2023-07-31T14:47:03;22.40;99.90
3334;DHT22;1679;50.392;8.008;2023-07-31T14:49:29;22.40;99.90
3334;DHT22;1679;50.392;8.008;2023-07-31T14:51:55;22.50;99.90
3334;DHT22;1679;50.392;8.008;2023-07-31T14:54:21;22.60;99.90
3334;DHT22;1679;50.392;8.008;2023-07-31T14:56:47;22.70;99.90
3334;DHT22;1679;50.392;8.008;2023-07-31T14:59:12;22.80;99.90
3334;DHT22;1679;50.392;8.008;2023-07-31T15:01:38;22.70;99.90
3334;DHT22;1679;50.392;8.008;2023-07-31T15:04:03;22.60;99.90
3334;DHT22;1679;50.392;8.008;2023-07-31T15:06:29;22.10;99.90
3334;DHT22;1679;50.392;8.008;2023-07-31T15:08:54;21.90;99.90
3334;DHT22;1679;50.392;8.008;2023-07-31T15:11:20;21.80;99.90
3334;DHT22;1679;50.392;8.008;2023-07-31T15:13:46;21.90;99.90
3334;DHT22;1679;50.392;8.008;2023-07-31T15:16:11;21.80;99.90
3334;DHT22;1679;50.392;8.008;2023-07-31T15:18:37;21.90;99.90
3334;DHT22;1679;50.392;8.008;2023-07-31T15:21:02;22.00;99.90
3334;DHT22;1679;50.392;8.008;2023-07-31T15:23:28;21.90;99.90
3334;DHT22;1679;50.392;8.008;2023-07-31T15:25:53;21.70;99.90
3334;DHT22;1679;50.392;8.008;2023-07-31T15:28:19;21.60;99.90
3334;DHT22;1679;50.392;8.008;2023-07-31T15:30:44;21.50;99.90
3334;DHT22;1679;50.392;8.008;2023-07-31T15:33:10;21.30;99.90
3334;DHT22;1679;50.392;8.008;2023-07-31T15:35:36;21.30;99.90
3334;DHT22;1679;50.392;8.008;2023-07-31T15:38:02;21.30;99.90
3334;DHT22;1679;50.392;8.008;2023-07-31T15:40:27;21.40;99.90
3334;DHT22;1679;50.392;8.008;2023-07-31T15:42:53;21.30;99.90
3334;DHT22;1679;50.392;8.008;2023-07-31T15:45:18;21.20;99.90
3334;DHT22;1679;50.392;8.008;2023-07-31T15:47:44;21.20;99.90
3334;DHT22;1679;50.392;8.008;2023-07-31T15:50:10;21.00;99.90
3334;DHT22;1679;50.392;8.008;2023-07-31T15:52:35;20.70;99.90
3334;DHT22;1679;50.392;8.008;2023-07-31T15:55:01;20.50;99.90
3334;DHT22;1679;50.392;8.008;2023-07-31T15:57:27;20.60;99.90
3334;DHT22;1679;50.392;8.008;2023-07-31T15:59:53;20.50;99.90
3334;DHT22;1679;50.392;8.008;2023-07-31T16:02:18;20.60;99.90